createdAt,value
2018-06-18T00:01:08.813Z,101612.30
2018-06-18T00:04:13.443Z,101622.52
2018-06-18T00:07:18.134Z,101625.24
2018-06-18T00:10:22.804Z,101628.19
2018-06-18T00:13:27.161Z,101630.07
2018-06-18T00:16:31.554Z,101632.50
2018-06-18T00:19:35.922Z,101641.02
2018-06-18T00:22:40.311Z,101641.80
2018-06-18T00:25:44.685Z,101633.83
2018-06-18T00:28:49.045Z,101633.83
2018-06-18T00:31:53.417Z,101637.81
2018-06-18T00:34:57.857Z,101638.58
2018-06-18T00:38:02.230Z,101646.77
2018-06-18T00:41:06.710Z,101651.05
2018-06-18T00:44:11.085Z,101639.09
2018-06-18T00:47:15.449Z,101627.12
2018-06-18T00:50:19.829Z,101625.23
2018-06-18T00:53:25.038Z,101622.80
2018-06-18T00:56:29.441Z,101620.19
2018-06-18T00:59:34.077Z,101611.38
2018-06-18T01:02:38.502Z,101602.89
2018-06-18T01:05:42.872Z,101599.84
2018-06-18T01:08:47.254Z,101590.83
2018-06-18T01:11:51.634Z,101588.81
2018-06-18T01:14:56.009Z,101580.84
2018-06-18T01:18:00.384Z,101587.89
2018-06-18T01:21:04.833Z,101581.80
2018-06-18T01:24:28.133Z,101583.61
2018-06-18T01:27:32.496Z,101588.98
2018-06-18T01:30:37.228Z,101590.80
2018-06-18T01:33:41.661Z,101593.00
2018-06-18T01:36:46.049Z,101602.77
2018-06-18T01:39:50.423Z,101604.05
2018-06-18T01:42:54.813Z,101602.06
2018-06-18T01:45:59.201Z,101598.11
2018-06-18T01:49:03.580Z,101599.70
2018-06-18T01:52:07.957Z,101600.84
2018-06-18T01:55:12.341Z,101597.05
2018-06-18T01:58:16.714Z,101596.97
2018-06-18T02:01:21.095Z,101596.56
2018-06-18T02:04:26.301Z,101605.47
2018-06-18T02:07:30.684Z,101605.80
2018-06-18T02:10:35.073Z,101600.79
2018-06-18T02:13:39.420Z,101606.45
2018-06-18T02:16:43.789Z,101608.56
2018-06-18T02:19:48.161Z,101601.95
2018-06-18T02:22:52.522Z,101591.90
2018-06-18T02:25:57.031Z,101589.98
2018-06-18T02:29:07.490Z,101592.94
2018-06-18T02:32:17.353Z,101600.81
2018-06-18T02:35:27.177Z,101585.81
2018-06-18T02:38:33.059Z,101579.22
2018-06-18T02:41:37.838Z,101587.07
2018-06-18T02:44:42.388Z,101595.80
2018-06-18T02:47:46.952Z,101600.19
2018-06-18T02:50:51.505Z,101592.22
2018-06-18T02:53:55.915Z,101600.41
2018-06-18T02:57:04.592Z,101605.42
2018-06-18T03:00:09.028Z,101595.22
2018-06-18T03:03:13.432Z,101592.69
2018-06-18T03:06:17.785Z,101594.90
2018-06-18T03:09:22.148Z,101600.52
2018-06-18T03:12:26.504Z,101596.75
2018-06-18T03:15:30.897Z,101609.44
2018-06-18T03:18:40.453Z,101616.41
2018-06-18T03:21:50.003Z,101612.29
2018-06-18T03:24:59.767Z,101615.06
2018-06-18T03:28:09.530Z,101607.80
2018-06-18T03:31:14.326Z,101604.62
2018-06-18T03:34:18.745Z,101606.17
2018-06-18T03:37:23.147Z,101598.58
2018-06-18T03:40:27.544Z,101598.12
2018-06-18T03:43:33.661Z,101599.23
2018-06-18T03:46:38.193Z,101602.28
2018-06-18T03:49:42.593Z,101605.92
2018-06-18T03:52:46.985Z,101608.66
2018-06-18T03:55:55.723Z,101604.12
2018-06-18T03:59:00.149Z,101606.72
2018-06-18T04:02:17.976Z,101600.48
2018-06-18T04:05:27.830Z,101607.27
2018-06-18T04:08:32.213Z,101601.58
2018-06-18T04:11:41.783Z,101607.66
2018-06-18T04:14:46.192Z,101611.31
2018-06-18T04:17:50.609Z,101616.56
2018-06-18T04:20:55.001Z,101622.04
2018-06-18T04:23:59.414Z,101625.16
2018-06-18T04:27:03.833Z,101625.85
2018-06-18T04:30:08.217Z,101623.06
2018-06-18T04:33:14.317Z,101617.30
2018-06-18T04:36:18.758Z,101616.63
2018-06-18T04:39:23.170Z,101584.96
2018-06-18T04:42:32.793Z,101575.85
2018-06-18T04:45:43.438Z,101579.03
2018-06-18T04:48:52.950Z,101569.81
2018-06-18T04:51:57.363Z,101568.34
2018-06-18T04:55:01.790Z,101559.92
2018-06-18T04:58:06.525Z,101564.14
2018-06-18T05:01:19.061Z,101566.09
2018-06-18T05:04:23.687Z,101568.75
2018-06-18T05:07:30.801Z,101590.84
2018-06-18T05:10:35.870Z,101601.33
2018-06-18T05:13:41.691Z,101596.88
2018-06-18T05:16:48.104Z,101596.31
2018-06-18T05:19:52.611Z,101595.98
2018-06-18T05:23:00.223Z,101596.30
2018-06-18T05:26:04.966Z,101594.34
2018-06-18T05:29:10.180Z,101589.36
2018-06-18T05:32:22.301Z,101584.33
2018-06-18T05:35:33.252Z,101584.79
2018-06-18T05:38:38.314Z,101578.43
2018-06-18T05:41:49.688Z,101584.20
2018-06-18T05:44:56.973Z,101589.20
2018-06-18T05:48:01.542Z,101595.94
2018-06-18T05:51:13.490Z,101592.07
2018-06-18T05:54:18.705Z,101591.70
2018-06-18T05:57:34.447Z,101594.69
2018-06-18T06:00:42.787Z,101594.05
2018-06-18T06:03:47.891Z,101592.96
2018-06-18T06:06:58.542Z,101587.80
2018-06-18T06:10:03.130Z,101586.04
2018-06-18T06:13:19.686Z,101578.30
2018-06-18T06:16:30.078Z,101585.80
2018-06-18T06:19:46.086Z,101591.16
2018-06-18T06:22:50.763Z,101589.18
2018-06-18T06:25:57.262Z,101585.75
2018-06-18T06:29:03.140Z,101590.83
2018-06-18T06:32:12.464Z,101585.09
2018-06-18T06:35:27.354Z,101587.88
2018-06-18T06:38:32.172Z,101586.05
2018-06-18T06:41:40.922Z,101582.82
2018-06-18T06:44:49.530Z,101594.39
2018-06-18T06:47:56.186Z,101591.37
2018-06-18T06:51:06.275Z,101587.05
2018-06-18T06:54:27.903Z,101592.05
2018-06-18T06:57:33.076Z,101592.16
2018-06-18T07:00:51.341Z,101587.48
2018-06-18T07:03:56.668Z,101588.33
2018-06-18T07:07:13.554Z,101587.84
2018-06-18T07:10:30.466Z,101592.41
2018-06-18T07:13:35.268Z,101601.56
2018-06-18T07:16:40.411Z,101590.41
2018-06-18T07:23:13.242Z,101584.67
2018-06-18T07:26:33.166Z,101592.27
2018-06-18T07:36:56.047Z,101592.78
2018-06-18T07:40:22.675Z,101590.28
2018-06-18T07:43:53.900Z,101592.64
2018-06-18T07:46:58.409Z,101580.95
2018-06-18T07:50:04.264Z,101580.48
2018-06-18T07:53:23.370Z,101582.61
2018-06-18T07:56:54.145Z,101578.67
2018-06-18T08:00:06.674Z,101581.17
2018-06-18T08:03:11.284Z,101586.23
2018-06-18T08:09:37.088Z,101593.47
2018-06-18T08:12:43.225Z,101588.24
2018-06-18T08:15:59.439Z,101591.61
2018-06-18T08:19:12.907Z,101587.23
2018-06-18T08:22:21.079Z,101574.27
2018-06-18T08:25:26.058Z,101579.13
2018-06-18T08:28:33.822Z,101573.23
2018-06-18T08:31:44.470Z,101576.80
2018-06-18T08:34:52.209Z,101577.52
2018-06-18T08:37:59.440Z,101565.30
2018-06-18T08:41:05.634Z,101557.38
2018-06-18T08:44:11.264Z,101568.26
2018-06-18T08:47:19.249Z,101571.47
2018-06-18T08:50:29.420Z,101574.59
2018-06-18T08:53:39.692Z,101574.66
2018-06-18T08:56:49.731Z,101571.33
2018-06-18T08:59:59.955Z,101568.57
2018-06-18T09:03:10.500Z,101571.50
2018-06-18T09:06:15.978Z,101581.14
2018-06-18T09:09:22.196Z,101585.11
2018-06-18T09:12:26.673Z,101577.86
2018-06-18T09:15:31.802Z,101580.87
2018-06-18T09:18:39.200Z,101582.42
2018-06-18T09:21:46.337Z,101586.42
2018-06-18T09:24:50.902Z,101593.85
2018-06-18T09:27:55.983Z,101591.45
2018-06-18T09:31:02.359Z,101586.88
2018-06-18T09:34:09.440Z,101589.40
2018-06-18T09:37:16.159Z,101601.88
2018-06-18T09:40:22.728Z,101584.41
2018-06-18T09:43:27.402Z,101572.92
2018-06-18T09:46:35.305Z,101584.06
2018-06-18T09:49:45.822Z,101582.84
2018-06-18T09:52:55.455Z,101590.98
2018-06-18T09:58:07.955Z,101591.41
2018-06-18T10:01:22.254Z,101588.93
2018-06-18T10:04:29.766Z,101590.55
2018-06-18T10:07:39.756Z,101589.50
2018-06-18T10:10:50.744Z,101597.77
2018-06-18T10:13:57.417Z,101598.47
2018-06-18T10:17:02.178Z,101587.28
2018-06-18T10:20:09.335Z,101590.80
2018-06-18T10:23:14.934Z,101596.60
2018-06-18T10:26:28.025Z,101613.70
2018-06-18T10:29:32.926Z,101610.53
2018-06-18T10:32:43.963Z,101616.42
2018-06-18T10:35:56.076Z,101609.44
2018-06-18T10:39:08.108Z,101609.69
2018-06-18T10:42:19.949Z,101603.31
2018-06-18T10:45:34.955Z,101604.69
2018-06-18T10:48:43.236Z,101599.05
2018-06-18T10:51:52.317Z,101605.65
2018-06-18T10:55:02.274Z,101614.59
2018-06-18T10:58:10.467Z,101613.35
2018-06-18T11:01:22.490Z,101609.48
2018-06-18T11:04:29.965Z,101611.38
2018-06-18T11:07:35.035Z,101609.14
2018-06-18T11:10:45.553Z,101605.12
2018-06-18T11:56:33.206Z,101592.31
2018-06-18T11:59:42.889Z,101598.67
2018-06-18T12:02:52.561Z,101600.97
2018-06-18T12:06:02.149Z,101606.32
2018-06-18T12:09:13.888Z,101600.83
2018-06-18T12:12:18.538Z,101596.22
2018-06-18T12:15:23.527Z,101598.05
2018-06-18T12:18:28.612Z,101586.67
2018-06-18T12:21:33.560Z,101591.70
2018-06-18T12:24:37.987Z,101604.55
2018-06-18T12:27:42.436Z,101600.30
2018-06-18T12:30:46.841Z,101599.72
2018-06-18T12:33:51.461Z,101599.12
2018-06-18T12:36:55.914Z,101598.09
2018-06-18T12:40:00.342Z,101603.33
2018-06-18T12:43:04.831Z,101602.74
2018-06-18T12:46:14.466Z,101609.61
2018-06-18T12:49:24.181Z,101611.58
2018-06-18T12:52:33.685Z,101599.15
2018-06-18T12:55:43.363Z,101596.99
2018-06-18T12:58:47.766Z,101597.16
2018-06-18T13:02:21.497Z,101602.87
2018-06-18T13:05:25.916Z,101590.97
2018-06-18T13:08:30.313Z,101591.28
2018-06-18T13:11:34.713Z,101591.03
2018-06-18T13:14:39.096Z,101593.91
2018-06-18T13:17:43.469Z,101592.13
2018-06-18T13:20:47.849Z,101596.28
2018-06-18T13:23:52.216Z,101598.25
2018-06-18T13:26:56.605Z,101586.38
2018-06-18T13:30:00.973Z,101588.63
2018-06-18T13:33:05.385Z,101594.47
2018-06-18T13:36:09.764Z,101590.09
2018-06-18T13:39:19.256Z,101593.91
2018-06-18T13:42:28.985Z,101593.83
2018-06-18T13:45:43.454Z,101583.73
2018-06-18T13:48:50.680Z,101564.30
2018-06-18T13:51:55.065Z,101580.84
2018-06-18T13:54:59.425Z,101579.78
2018-06-18T13:58:03.800Z,101571.30
2018-06-18T14:01:10.376Z,101574.13
2018-06-18T14:04:14.744Z,101569.27
2018-06-18T14:07:19.133Z,101561.45
2018-06-18T14:10:23.501Z,101565.55
2018-06-18T14:13:27.877Z,101565.39
2018-06-18T14:16:32.208Z,101571.22
2018-06-18T14:19:41.747Z,101572.28
2018-06-18T14:22:46.149Z,101574.56
2018-06-18T14:25:50.526Z,101564.20
2018-06-18T14:28:54.889Z,101553.45
2018-06-18T14:32:00.188Z,101554.98
2018-06-18T14:35:09.762Z,101555.50
2018-06-18T14:38:19.258Z,101559.63
2018-06-18T14:41:23.646Z,101555.52
2018-06-18T14:44:28.030Z,101551.23
2018-06-18T14:47:32.463Z,101536.83
2018-06-18T14:50:36.851Z,101539.64
2018-06-18T14:53:41.236Z,101541.63
2018-06-18T14:56:45.903Z,101540.84
2018-06-18T15:00:00.516Z,101552.44
2018-06-18T15:03:04.931Z,101542.16
2018-06-18T15:06:09.317Z,101542.23
2018-06-18T15:09:13.790Z,101542.55
2018-06-18T15:12:20.961Z,101535.98
2018-06-18T15:16:31.323Z,101530.20
2018-06-18T15:19:35.721Z,101528.77
2018-06-18T15:22:41.005Z,101527.88
2018-06-18T15:25:49.306Z,101529.83
2018-06-18T15:28:53.753Z,101528.19
2018-06-18T15:31:58.145Z,101522.67
2018-06-18T15:35:02.540Z,101522.09
2018-06-18T15:38:06.987Z,101524.31
2018-06-18T15:41:11.403Z,101528.07
2018-06-18T15:44:15.866Z,101525.05
2018-06-18T15:47:20.189Z,101526.42
2018-06-18T15:50:24.605Z,101526.44
2018-06-18T15:53:29.032Z,101542.42
2018-06-18T15:56:33.479Z,101530.61
2018-06-18T15:59:37.813Z,101532.37
2018-06-18T16:02:42.327Z,101532.05
2018-06-18T16:05:47.075Z,101538.87
2018-06-18T16:08:51.505Z,101532.20
2018-06-18T16:11:55.905Z,101532.25
2018-06-18T16:15:00.289Z,101525.98
2018-06-18T16:18:05.021Z,101531.00
2018-06-18T16:21:09.396Z,101539.53
2018-06-18T16:24:13.772Z,101522.95
2018-06-18T16:27:18.185Z,101533.32
2018-06-18T16:30:22.569Z,101526.89
2018-06-18T16:33:26.973Z,101543.73
2018-06-18T16:36:31.502Z,101537.06
2018-06-18T16:39:35.883Z,101537.89
2018-06-18T16:42:40.272Z,101533.17
2018-06-18T16:45:44.660Z,101533.39
2018-06-18T16:48:49.396Z,101540.44
2018-06-18T16:51:53.772Z,101537.36
2018-06-18T16:54:58.172Z,101546.20
2018-06-18T16:58:02.602Z,101542.08
2018-06-18T17:01:06.973Z,101543.52
2018-06-18T17:04:11.347Z,101541.89
2018-06-18T17:07:15.753Z,101543.80
2018-06-18T17:10:20.140Z,101546.20
2018-06-18T17:13:24.507Z,101538.55
2018-06-18T17:16:28.878Z,101538.81
2018-06-18T17:19:33.244Z,101538.01
2018-06-18T17:22:37.605Z,101536.31
2018-06-18T17:25:41.991Z,101529.89
2018-06-18T17:28:46.345Z,101528.23
2018-06-18T17:31:50.772Z,101536.14
2018-06-18T17:34:55.189Z,101533.07
2018-06-18T17:37:59.574Z,101537.45
2018-06-18T17:41:04.022Z,101548.22
2018-06-18T17:44:08.413Z,101541.08
2018-06-18T17:47:12.805Z,101539.11
2018-06-18T17:50:17.169Z,101551.09
2018-06-18T17:53:21.554Z,101550.70
2018-06-18T17:56:25.994Z,101545.69
2018-06-18T17:59:30.528Z,101549.30
2018-06-18T18:02:35.001Z,101548.20
2018-06-18T18:05:39.370Z,101547.36
2018-06-18T18:08:44.133Z,101545.98
2018-06-18T18:11:48.503Z,101559.98
2018-06-18T18:14:52.916Z,101553.59
2018-06-18T18:17:57.281Z,101551.57
2018-06-18T18:21:01.665Z,101553.16
2018-06-18T18:24:06.100Z,101545.11
2018-06-18T18:27:11.057Z,101538.46
2018-06-18T18:30:15.484Z,101538.16
2018-06-18T18:33:19.900Z,101537.80
2018-06-18T18:36:24.349Z,101533.39
2018-06-18T18:39:28.855Z,101536.91
2018-06-18T18:42:33.189Z,101536.85
2018-06-18T18:45:37.584Z,101539.23
2018-06-18T18:48:42.007Z,101543.34
2018-06-18T18:51:46.889Z,101533.12
2018-06-18T18:56:07.404Z,101530.86
2018-06-18T18:59:20.743Z,101528.81
2018-06-18T19:02:25.154Z,101536.97
2018-06-18T19:05:29.554Z,101536.07
2018-06-18T19:08:33.921Z,101529.67
2018-06-18T19:11:38.372Z,101531.83
2018-06-18T19:14:42.767Z,101530.11
2018-06-18T19:17:47.185Z,101526.50
2018-06-18T19:21:09.990Z,101532.58
2018-06-18T19:24:14.381Z,101536.67
2018-06-18T19:27:18.800Z,101531.48
2018-06-18T19:30:23.200Z,101536.42
2018-06-18T19:33:52.777Z,101531.73
2018-06-18T19:36:58.539Z,101533.67
2018-06-18T19:40:02.905Z,101539.08
2018-06-18T19:43:07.350Z,101533.30
2018-06-18T19:46:11.748Z,101526.38
2018-06-18T19:49:16.153Z,101529.44
2018-06-18T19:52:20.586Z,101529.19
2018-06-18T19:55:28.050Z,101523.84
2018-06-18T19:58:32.448Z,101527.97
2018-06-18T20:01:37.041Z,101537.77
2018-06-18T20:04:41.448Z,101537.15
2018-06-18T20:07:56.474Z,101538.24
2018-06-18T20:11:00.848Z,101547.83
2018-06-18T20:14:05.316Z,101542.86
2018-06-18T20:17:09.746Z,101546.35
2018-06-18T20:20:14.892Z,101550.66
2018-06-18T20:23:22.572Z,101556.64
2018-06-18T20:26:26.952Z,101553.09
2018-06-18T20:29:31.368Z,101553.59
2018-06-18T20:32:35.800Z,101557.39
2018-06-18T20:35:44.476Z,101570.06
2018-06-18T20:38:48.873Z,101556.08
2018-06-18T20:41:53.283Z,101561.82
2018-06-18T20:44:57.670Z,101564.01
2018-06-18T20:48:02.049Z,101572.14
2018-06-18T20:51:06.477Z,101576.83
2018-06-18T20:54:11.789Z,101581.75
2018-06-18T20:57:16.190Z,101572.14
2018-06-18T21:00:20.584Z,101578.83
2018-06-18T21:03:25.013Z,101580.73
2018-06-18T21:06:29.443Z,101572.73
2018-06-18T21:09:33.865Z,101576.36
2018-06-18T21:12:38.277Z,101578.33
2018-06-18T21:15:42.671Z,101572.56
2018-06-18T21:18:47.079Z,101575.83
2018-06-18T21:21:51.473Z,101576.96
2018-06-18T21:24:55.880Z,101578.30
2018-06-18T21:28:00.614Z,101573.23
2018-06-18T21:31:05.038Z,101579.85
2018-06-18T21:34:09.454Z,101581.81
2018-06-18T21:37:13.869Z,101588.93
2018-06-18T21:40:18.272Z,101583.23
2018-06-18T21:43:22.696Z,101583.23
2018-06-18T21:46:27.210Z,101586.47
2018-06-18T21:49:31.593Z,101578.73
2018-06-18T21:52:35.981Z,101569.82
2018-06-18T21:55:40.393Z,101584.59
2018-06-18T21:58:44.814Z,101590.58
2018-06-18T22:01:49.240Z,101588.29
2018-06-18T22:04:53.625Z,101581.07
2018-06-18T22:07:58.114Z,101580.19
2018-06-18T22:11:02.542Z,101578.17
2018-06-18T22:14:06.994Z,101579.13
2018-06-18T22:17:11.473Z,101585.86
2018-06-18T22:20:15.897Z,101586.06
2018-06-18T22:23:20.320Z,101573.30
2018-06-18T22:26:24.748Z,101570.75
2018-06-18T22:29:29.141Z,101570.47
2018-06-18T22:32:33.569Z,101566.64
2018-06-18T22:35:38.014Z,101564.38
2018-06-18T22:38:42.414Z,101559.66
2018-06-18T22:41:46.843Z,101566.84
2018-06-18T22:44:51.869Z,101566.12
2018-06-18T22:47:56.278Z,101564.98
2018-06-18T22:51:00.708Z,101567.38
2018-06-18T22:54:05.205Z,101581.64
2018-06-18T22:57:09.563Z,101571.08
2018-06-18T23:00:13.965Z,101573.17
2018-06-18T23:03:18.381Z,101576.16
2018-06-18T23:06:22.801Z,101581.64
2018-06-18T23:09:27.222Z,101576.11
2018-06-18T23:12:37.546Z,101575.08
2018-06-18T23:15:41.685Z,101580.75
2018-06-18T23:18:46.151Z,101576.69
2018-06-18T23:21:50.577Z,101573.82
2018-06-18T23:24:55.010Z,101569.22
2018-06-18T23:27:59.413Z,101572.77
2018-06-18T23:31:03.841Z,101567.48
2018-06-18T23:34:08.296Z,101571.08
2018-06-18T23:37:12.749Z,101569.88
2018-06-18T23:40:17.189Z,101564.06
2018-06-18T23:43:21.585Z,101571.44
2018-06-18T23:46:25.985Z,101569.47
2018-06-18T23:49:30.383Z,101562.02
2018-06-18T23:52:34.808Z,101569.34
2018-06-18T23:55:39.244Z,101568.45
2018-06-18T23:58:43.672Z,101560.84
